Holy Cross — WDE7144 — position and weather

sailwx.info

Track history (hours):
 
Tides and Currents Weather Stations Pressure Air Temp Water Temp Dewpoint Dewpoint Depression Visibility Wind Speed Wind Dir Waves Ship Positions

Holy Cross

Owner: Marquette Transportation Company Gulf-Inland, LLC, Jefferson, LA. More information available from US FCC via Universal Licensing System and Coast Guard Vessel Documentation Center.

Last reported at 2018-Jun-20 15:00 UTC. Time now 2018-Jun-20 15:19 UTC.
Position N 29°49' W 093°59'.

Length 115 m; draft 2.7 m.

Type: . MMSI: 367389540.

Date/timePositionNaut miles runAvg speedWind from/ knotsBaromVisibWave heightAir tempDewpointWater temp
2018-Jun-20 15:00N 29°49' W 093°59'1 2.9
2018-Jun-20 14:30N 29°48' W 094°00'2 3.4
2018-Jun-20 14:00N 29°47' W 094°02'2 3.7
2018-Jun-20 13:30N 29°46' W 094°04'2 3.6
2018-Jun-20 13:00N 29°44' W 094°05'2 4.3
2018-Jun-20 12:30N 29°43' W 094°07'2 4.3
2018-Jun-20 12:00N 29°42' W 094°09'2 4.1
2018-Jun-20 11:30N 29°41' W 094°11'2 3.9
2018-Jun-20 11:00N 29°40' W 094°13'2 3.8
2018-Jun-20 10:30N 29°39' W 094°15'2 3.7
2018-Jun-20 10:00N 29°39' W 094°17'2 3.8
2018-Jun-20 09:29N 29°38' W 094°19'2 3.7
2018-Jun-20 09:00N 29°37' W 094°21'2 3.8
2018-Jun-20 08:27N 29°36' W 094°23'2 3.0
2018-Jun-20 07:45N 29°34' W 094°25'1 3.9
2018-Jun-20 07:30N 29°34' W 094°26'20 4.7
2018-Jun-20 03:13N 29°23' W 094°46'1 4.9
2018-Jun-20 02:57N 29°22' W 094°47'7 5.4
2018-Jun-20 01:40N 29°28' W 094°51'1 6.3
2018-Jun-20 01:30N 29°29' W 094°52'3 6.1
2018-Jun-20 01:00N 29°32' W 094°54'3 5.8
2018-Jun-20 00:29N 29°34' W 094°56'3 5.7
2018-Jun-20 00:00N 29°37' W 094°57'3 5.6
2018-Jun-19 23:27N 29°39' W 094°58'3 5.6
2018-Jun-19 22:53N 29°42' W 095°00'0 0.0
2018-Jun-18 06:18N 29°42' W 095°01'2 5.9
2018-Jun-18 05:57N 29°41' W 094°59'3 6.4
2018-Jun-18 05:30N 29°38' W 094°58'3 6.7
2018-Jun-18 05:00N 29°35' W 094°56'9 6.4
2018-Jun-18 03:32N 29°27' W 094°51'0 6.0
2018-Jun-18 03:29N 29°27' W 094°50'3 5.9
2018-Jun-18 03:00N 29°24' W 094°49'2 4.9
2018-Jun-18 02:30N 29°23' W 094°47'1 2.6
2018-Jun-18 02:00N 29°24' W 094°46'3 2.3
2018-Jun-18 00:44N 29°25' W 094°43'0 0.1
2018-Jun-18 00:28N 29°25' W 094°43'0 0.0
2018-Jun-17 23:43N 29°25' W 094°43'0 0.0
2018-Jun-17 23:30N 29°25' W 094°43'14 4.1
2018-Jun-17 20:00N 29°32' W 094°29'0 0.0
2018-Jun-17 19:29N 29°32' W 094°29'2 3.1
2018-Jun-17 18:51N 29°34' W 094°27'2 6.0
2018-Jun-17 18:29N 29°34' W 094°25'2 4.0
2018-Jun-17 18:00N 29°36' W 094°24'1 2.4
2018-Jun-17 17:25N 29°36' W 094°22'0 0.1
2018-Jun-17 16:53N 29°36' W 094°22'0 0.1
2018-Jun-17 16:29N 29°36' W 094°22'0 0.0
2018-Jun-17 15:54N 29°36' W 094°22'0 0.2
2018-Jun-17 15:30N 29°36' W 094°22'0 0.0
2018-Jun-17 14:58N 29°36' W 094°22'0 0.1
2018-Jun-17 14:30N 29°36' W 094°22'0 0.3
2018-Jun-17 13:59N 29°36' W 094°22'2 4.8
2018-Jun-17 13:30N 29°37' W 094°20'2 4.7
2018-Jun-17 13:01N 29°39' W 094°17'2 4.3
2018-Jun-17 12:30N 29°39' W 094°15'0 0.3
2018-Jun-17 12:01N 29°39' W 094°15'0 0.0
2018-Jun-17 11:28N 29°39' W 094°15'0 0.0
2018-Jun-17 10:59N 29°39' W 094°15'0 0.0
2018-Jun-17 10:29N 29°39' W 094°15'1 2.8
2018-Jun-17 10:00N 29°39' W 094°17'2 3.8
2018-Jun-17 09:29N 29°38' W 094°19'2 3.8
2018-Jun-17 09:00N 29°37' W 094°20'2 3.7
2018-Jun-17 08:31N 29°36' W 094°22'2 3.5
2018-Jun-17 08:01N 29°36' W 094°24'2 3.4
2018-Jun-17 07:25N 29°34' W 094°25'22 3.8
2018-Jun-17 01:44N 29°23' W 094°47'12 4.3
2018-Jun-16 22:52N 29°33' W 094°55'3 4.9
2018-Jun-16 22:19N 29°35' W 094°56'3 5.1
2018-Jun-16 21:41N 29°38' W 094°58'1 5.1
2018-Jun-16 21:30N 29°39' W 094°58'3 5.2
2018-Jun-16 21:00N 29°41' W 094°59'2 0.2
2018-Jun-16 12:32N 29°42' W 095°01'0 5.6
2018-Jun-16 12:29N 29°42' W 095°01'3 5.5
2018-Jun-16 11:58N 29°40' W 094°58'2 5.5
2018-Jun-16 11:30N 29°38' W 094°58'3 5.5
2018-Jun-16 11:00N 29°35' W 094°56'11 5.5
2018-Jun-16 09:04N 29°26' W 094°50'0 5.0
2018-Jun-16 09:00N 29°26' W 094°50'3 5.1
2018-Jun-16 08:30N 29°23' W 094°49'2 4.3
2018-Jun-16 07:59N 29°23' W 094°46'1 0.9
2018-Jun-16 06:55N 29°24' W 094°45'11 3.0
2018-Jun-16 03:15N 29°30' W 094°35'9 1.0
2018-Jun-15 18:55N 29°34' W 094°26'1 2.0
2018-Jun-15 18:25N 29°34' W 094°25'4 4.3
2018-Jun-15 17:30N 29°37' W 094°21'3 5.4
2018-Jun-15 16:54N 29°38' W 094°18'2 5.5
2018-Jun-15 16:29N 29°39' W 094°16'2 3.6
2018-Jun-15 16:00N 29°40' W 094°14'3 5.4
2018-Jun-15 15:30N 29°41' W 094°11'3 5.2
2018-Jun-15 15:00N 29°42' W 094°09'3 5.5
2018-Jun-15 14:30N 29°44' W 094°06'3 6.0
2018-Jun-15 14:00N 29°46' W 094°03'3 5.9
2018-Jun-15 13:31N 29°47' W 094°01'2 4.8
2018-Jun-15 13:01N 29°49' W 093°59'2 4.1
2018-Jun-15 12:30N 29°51' W 093°57'2 4.7
2018-Jun-15 12:01N 29°53' W 093°56'2 3.2
2018-Jun-15 11:31N 29°54' W 093°54'2 4.0
2018-Jun-15 11:01N 29°55' W 093°53'2 4.3
2018-Jun-15 10:31N 29°57' W 093°52'2 4.8
2018-Jun-15 10:00N 29°59' W 093°49'3 5.2
2018-Jun-15 09:31N 29°60' W 093°47'2 3.8
2018-Jun-15 09:01N 30°01' W 093°45'2 4.1
2018-Jun-15 08:30N 30°03' W 093°44'2 4.9
2018-Jun-15 08:00N 30°04' W 093°41'3 5.3
2018-Jun-15 07:30N 30°04' W 093°38'3 5.5
2018-Jun-15 07:00N 30°04' W 093°35'2 5.0
2018-Jun-15 06:31N 30°04' W 093°32'2 4.9
2018-Jun-15 06:01N 30°04' W 093°29'2 4.9
2018-Jun-15 05:30N 30°04' W 093°26'2 4.7
2018-Jun-15 05:01N 30°04' W 093°24'2 4.0
2018-Jun-15 04:31N 30°04' W 093°21'2 3.8
2018-Jun-15 04:01N 30°05' W 093°20'1 2.4
2018-Jun-15 03:30N 30°06' W 093°19'1 1.2
2018-Jun-15 03:00N 30°06' W 093°18'1 1.9
2018-Jun-15 02:31N 30°05' W 093°18'1 1.7
2018-Jun-15 02:01N 30°05' W 093°17'0 0.1
2018-Jun-15 01:31N 30°05' W 093°17'0 0.0
2018-Jun-15 01:01N 30°05' W 093°17'0 0.1
2018-Jun-15 00:31N 30°05' W 093°17'0 0.0
2018-Jun-15 00:01N 30°05' W 093°17'0 0.0
2018-Jun-14 23:30N 30°05' W 093°17'0 0.0
2018-Jun-14 23:01N 30°05' W 093°17'0 0.0
2018-Jun-14 22:30N 30°05' W 093°17'0 0.0
2018-Jun-14 22:00N 30°05' W 093°17'0 0.0
2018-Jun-14 21:31N 30°05' W 093°17'0 0.0
2018-Jun-14 21:01N 30°05' W 093°17'0 0.0
2018-Jun-14 20:30N 30°05' W 093°17'0 0.0
2018-Jun-14 20:01N 30°05' W 093°17'0 0.0
2018-Jun-14 19:31N 30°05' W 093°17'0 0.0
2018-Jun-14 19:01N 30°05' W 093°17'0 0.0
2018-Jun-14 18:31N 30°05' W 093°17'0 0.0
2018-Jun-14 18:00N 30°05' W 093°17'0 0.0
2018-Jun-14 17:31N 30°05' W 093°17'0 0.0
2018-Jun-14 17:01N 30°05' W 093°17'0 0.0
2018-Jun-14 16:31N 30°05' W 093°17'0 0.0
2018-Jun-14 16:01N 30°05' W 093°17'0 0.0
2018-Jun-14 15:31N 30°05' W 093°17'0 0.0
2018-Jun-14 15:01N 30°05' W 093°17'0 0.0
2018-Jun-14 14:31N 30°05' W 093°17'0 0.0
2018-Jun-14 14:00N 30°05' W 093°17'0 0.0
2018-Jun-14 13:31N 30°05' W 093°17'0 0.0
2018-Jun-14 13:01N 30°05' W 093°17'0 0.0
2018-Jun-14 12:31N 30°05' W 093°17'0 0.0
2018-Jun-14 12:01N 30°05' W 093°17'0 0.0
2018-Jun-14 11:29N 30°05' W 093°17'0 0.0
2018-Jun-14 11:00N 30°05' W 093°17'0 0.0
2018-Jun-14 10:31N 30°05' W 093°17'0 0.0
2018-Jun-14 10:01N 30°05' W 093°17'0 0.0
2018-Jun-14 09:30N 30°05' W 093°17'0 0.0
2018-Jun-14 09:01N 30°05' W 093°17'0 0.0
2018-Jun-14 08:31N 30°05' W 093°17'0 0.0
2018-Jun-14 08:01N 30°05' W 093°17'1 1.5
2018-Jun-14 07:31N 30°04' W 093°16'1 2.7
2018-Jun-14 07:01N 30°03' W 093°16'0 0.5
2018-Jun-14 06:31N 30°03' W 093°16'0 0.0
2018-Jun-14 06:01N 30°03' W 093°16'0 0.1
2018-Jun-14 05:31N 30°03' W 093°16'0 0.0
2018-Jun-14 05:01N 30°03' W 093°16'0 0.0
2018-Jun-14 04:31N 30°03' W 093°16'0 0.0
2018-Jun-14 04:01N 30°03' W 093°16'0 0.0
2018-Jun-14 03:31N 30°03' W 093°16'0 0.0
2018-Jun-14 03:01N 30°03' W 093°16'0 0.0
2018-Jun-14 02:30N 30°03' W 093°16'0 0.0
2018-Jun-14 02:01N 30°03' W 093°16'0 0.0
2018-Jun-14 01:30N 30°03' W 093°16'0 0.0
2018-Jun-14 01:00N 30°03' W 093°16'0 0.0
2018-Jun-14 00:31N 30°03' W 093°16'0 0.8
2018-Jun-14 00:01N 30°02' W 093°15'2 4.1
2018-Jun-13 23:30N 30°01' W 093°14'2 4.3
2018-Jun-13 23:00N 29°59' W 093°12'0 0.9
2018-Jun-13 22:31N 29°59' W 093°12'0 0.0
2018-Jun-13 22:00N 29°59' W 093°12'0 0.1
2018-Jun-13 21:30N 29°59' W 093°12'0 0.0
2018-Jun-13 21:01N 29°59' W 093°12'0 0.0
2018-Jun-13 20:30N 29°59' W 093°12'0 0.0
2018-Jun-13 20:01N 29°59' W 093°12'0 0.0
2018-Jun-13 19:30N 29°59' W 093°12'0 0.0
2018-Jun-13 19:01N 29°59' W 093°12'0 0.0
2018-Jun-13 18:31N 29°59' W 093°12'0 0.0
2018-Jun-13 18:01N 29°59' W 093°12'0 0.1
2018-Jun-13 17:30N 29°59' W 093°12'0 0.0
2018-Jun-13 17:00N 29°59' W 093°12'0 0.0
2018-Jun-13 16:31N 29°59' W 093°12'0 0.0
2018-Jun-13 16:01N 29°59' W 093°12'0 0.0
2018-Jun-13 15:31N 29°59' W 093°12'0 0.0
2018-Jun-13 15:00N 29°59' W 093°12'0 0.0
2018-Jun-13 14:30N 29°59' W 093°12'0 0.7
2018-Jun-13 14:01N 29°58' W 093°12'0 0.6
2018-Jun-13 13:30N 29°58' W 093°12'1 2.8
2018-Jun-13 13:01N 29°57' W 093°10'0 0.7
2018-Jun-13 12:31N 29°57' W 093°10'0 0.4
2018-Jun-13 11:59N 29°57' W 093°10'40 2.6
2018-Jun-12 20:14N 29°53' W 092°24'2 4.8
2018-Jun-12 19:53N 29°52' W 092°22'1 2.5
2018-Jun-12 19:26N 29°51' W 092°22'2 4.4
2018-Jun-12 19:01N 29°50' W 092°20'1 1.5
2018-Jun-12 18:31N 29°50' W 092°19'2 3.6
2018-Jun-12 18:01N 29°49' W 092°17'0 0.0
2018-Jun-12 17:31N 29°49' W 092°17'0 0.9
2018-Jun-12 17:00N 29°49' W 092°17'3 5.2
2018-Jun-12 16:31N 29°48' W 092°14'2 3.6
2018-Jun-12 16:00N 29°47' W 092°12'1 1.7
2018-Jun-12 15:30N 29°47' W 092°11'2 4.3
2018-Jun-12 15:01N 29°47' W 092°09'3 5.4
2018-Jun-12 14:30N 29°48' W 092°06'3 5.4
2018-Jun-12 14:01N 29°49' W 092°03'3 5.9
2018-Jun-12 13:31N 29°50' W 091°60'3 5.7
2018-Jun-12 13:00N 29°51' W 091°57'  
Track history (hours):
 
Tides and Currents Weather Stations Pressure Air Temp Water Temp Dewpoint Dewpoint Depression Visibility Wind Speed Wind Dir Waves Ship Positions

Holy Cross

Owner: Marquette Transportation Company Gulf-Inland, LLC, Jefferson, LA. More information available from US FCC via Universal Licensing System and Coast Guard Vessel Documentation Center.

Last reported at 2018-Jun-20 15:00 UTC. Time now 2018-Jun-20 15:19 UTC.
Position N 29°49' W 093°59'.

Length 115 m; draft 2.7 m.

Type: . MMSI: 367389540.

Date/timePositionNaut miles runAvg speedWind from/ knotsBaromVisibWave heightAir tempDewpointWater temp
2018-Jun-20 15:00N 29°49' W 093°59'1 2.9
2018-Jun-20 14:30N 29°48' W 094°00'2 3.4
2018-Jun-20 14:00N 29°47' W 094°02'2 3.7
2018-Jun-20 13:30N 29°46' W 094°04'2 3.6
2018-Jun-20 13:00N 29°44' W 094°05'2 4.3
2018-Jun-20 12:30N 29°43' W 094°07'2 4.3
2018-Jun-20 12:00N 29°42' W 094°09'2 4.1
2018-Jun-20 11:30N 29°41' W 094°11'2 3.9
2018-Jun-20 11:00N 29°40' W 094°13'2 3.8
2018-Jun-20 10:30N 29°39' W 094°15'2 3.7
2018-Jun-20 10:00N 29°39' W 094°17'2 3.8
2018-Jun-20 09:29N 29°38' W 094°19'2 3.7
2018-Jun-20 09:00N 29°37' W 094°21'2 3.8
2018-Jun-20 08:27N 29°36' W 094°23'2 3.0
2018-Jun-20 07:45N 29°34' W 094°25'1 3.9
2018-Jun-20 07:30N 29°34' W 094°26'20 4.7
2018-Jun-20 03:13N 29°23' W 094°46'1 4.9
2018-Jun-20 02:57N 29°22' W 094°47'7 5.4
2018-Jun-20 01:40N 29°28' W 094°51'1 6.3
2018-Jun-20 01:30N 29°29' W 094°52'3 6.1
2018-Jun-20 01:00N 29°32' W 094°54'3 5.8
2018-Jun-20 00:29N 29°34' W 094°56'3 5.7
2018-Jun-20 00:00N 29°37' W 094°57'3 5.6
2018-Jun-19 23:27N 29°39' W 094°58'3 5.6
2018-Jun-19 22:53N 29°42' W 095°00'0 0.0
2018-Jun-18 06:18N 29°42' W 095°01'2 5.9
2018-Jun-18 05:57N 29°41' W 094°59'3 6.4
2018-Jun-18 05:30N 29°38' W 094°58'3 6.7
2018-Jun-18 05:00N 29°35' W 094°56'9 6.4
2018-Jun-18 03:32N 29°27' W 094°51'0 6.0
2018-Jun-18 03:29N 29°27' W 094°50'3 5.9
2018-Jun-18 03:00N 29°24' W 094°49'2 4.9
2018-Jun-18 02:30N 29°23' W 094°47'1 2.6
2018-Jun-18 02:00N 29°24' W 094°46'3 2.3
2018-Jun-18 00:44N 29°25' W 094°43'0 0.1
2018-Jun-18 00:28N 29°25' W 094°43'0 0.0
2018-Jun-17 23:43N 29°25' W 094°43'0 0.0
2018-Jun-17 23:30N 29°25' W 094°43'14 4.1
2018-Jun-17 20:00N 29°32' W 094°29'0 0.0
2018-Jun-17 19:29N 29°32' W 094°29'2 3.1
2018-Jun-17 18:51N 29°34' W 094°27'2 6.0
2018-Jun-17 18:29N 29°34' W 094°25'2 4.0
2018-Jun-17 18:00N 29°36' W 094°24'1 2.4
2018-Jun-17 17:25N 29°36' W 094°22'0 0.1
2018-Jun-17 16:53N 29°36' W 094°22'0 0.1
2018-Jun-17 16:29N 29°36' W 094°22'0 0.0
2018-Jun-17 15:54N 29°36' W 094°22'0 0.2
2018-Jun-17 15:30N 29°36' W 094°22'0 0.0
2018-Jun-17 14:58N 29°36' W 094°22'0 0.1
2018-Jun-17 14:30N 29°36' W 094°22'0 0.3
2018-Jun-17 13:59N 29°36' W 094°22'2 4.8
2018-Jun-17 13:30N 29°37' W 094°20'2 4.7
2018-Jun-17 13:01N 29°39' W 094°17'2 4.3
2018-Jun-17 12:30N 29°39' W 094°15'0 0.3
2018-Jun-17 12:01N 29°39' W 094°15'0 0.0
2018-Jun-17 11:28N 29°39' W 094°15'0 0.0
2018-Jun-17 10:59N 29°39' W 094°15'0 0.0
2018-Jun-17 10:29N 29°39' W 094°15'1 2.8
2018-Jun-17 10:00N 29°39' W 094°17'2 3.8
2018-Jun-17 09:29N 29°38' W 094°19'2 3.8
2018-Jun-17 09:00N 29°37' W 094°20'2 3.7
2018-Jun-17 08:31N 29°36' W 094°22'2 3.5
2018-Jun-17 08:01N 29°36' W 094°24'2 3.4
2018-Jun-17 07:25N 29°34' W 094°25'22 3.8
2018-Jun-17 01:44N 29°23' W 094°47'12 4.3
2018-Jun-16 22:52N 29°33' W 094°55'3 4.9
2018-Jun-16 22:19N 29°35' W 094°56'3 5.1
2018-Jun-16 21:41N 29°38' W 094°58'1 5.1
2018-Jun-16 21:30N 29°39' W 094°58'3 5.2
2018-Jun-16 21:00N 29°41' W 094°59'2 0.2
2018-Jun-16 12:32N 29°42' W 095°01'0 5.6
2018-Jun-16 12:29N 29°42' W 095°01'3 5.5
2018-Jun-16 11:58N 29°40' W 094°58'2 5.5
2018-Jun-16 11:30N 29°38' W 094°58'3 5.5
2018-Jun-16 11:00N 29°35' W 094°56'11 5.5
2018-Jun-16 09:04N 29°26' W 094°50'0 5.0
2018-Jun-16 09:00N 29°26' W 094°50'3 5.1
2018-Jun-16 08:30N 29°23' W 094°49'2 4.3
2018-Jun-16 07:59N 29°23' W 094°46'1 0.9
2018-Jun-16 06:55N 29°24' W 094°45'11 3.0
2018-Jun-16 03:15N 29°30' W 094°35'9 1.0
2018-Jun-15 18:55N 29°34' W 094°26'1 2.0
2018-Jun-15 18:25N 29°34' W 094°25'4 4.3
2018-Jun-15 17:30N 29°37' W 094°21'3 5.4
2018-Jun-15 16:54N 29°38' W 094°18'2 5.5
2018-Jun-15 16:29N 29°39' W 094°16'2 3.6
2018-Jun-15 16:00N 29°40' W 094°14'3 5.4
2018-Jun-15 15:30N 29°41' W 094°11'3 5.2
2018-Jun-15 15:00N 29°42' W 094°09'3 5.5
2018-Jun-15 14:30N 29°44' W 094°06'3 6.0
2018-Jun-15 14:00N 29°46' W 094°03'3 5.9
2018-Jun-15 13:31N 29°47' W 094°01'2 4.8
2018-Jun-15 13:01N 29°49' W 093°59'2 4.1
2018-Jun-15 12:30N 29°51' W 093°57'2 4.7
2018-Jun-15 12:01N 29°53' W 093°56'2 3.2
2018-Jun-15 11:31N 29°54' W 093°54'2 4.0
2018-Jun-15 11:01N 29°55' W 093°53'2 4.3
2018-Jun-15 10:31N 29°57' W 093°52'2 4.8
2018-Jun-15 10:00N 29°59' W 093°49'3 5.2
2018-Jun-15 09:31N 29°60' W 093°47'2 3.8
2018-Jun-15 09:01N 30°01' W 093°45'2 4.1
2018-Jun-15 08:30N 30°03' W 093°44'2 4.9
2018-Jun-15 08:00N 30°04' W 093°41'3 5.3
2018-Jun-15 07:30N 30°04' W 093°38'3 5.5
2018-Jun-15 07:00N 30°04' W 093°35'2 5.0
2018-Jun-15 06:31N 30°04' W 093°32'2 4.9
2018-Jun-15 06:01N 30°04' W 093°29'2 4.9
2018-Jun-15 05:30N 30°04' W 093°26'2 4.7
2018-Jun-15 05:01N 30°04' W 093°24'2 4.0
2018-Jun-15 04:31N 30°04' W 093°21'2 3.8
2018-Jun-15 04:01N 30°05' W 093°20'1 2.4
2018-Jun-15 03:30N 30°06' W 093°19'1 1.2
2018-Jun-15 03:00N 30°06' W 093°18'1 1.9
2018-Jun-15 02:31N 30°05' W 093°18'1 1.7
2018-Jun-15 02:01N 30°05' W 093°17'0 0.1
2018-Jun-15 01:31N 30°05' W 093°17'0 0.0
2018-Jun-15 01:01N 30°05' W 093°17'0 0.1
2018-Jun-15 00:31N 30°05' W 093°17'0 0.0
2018-Jun-15 00:01N 30°05' W 093°17'0 0.0
2018-Jun-14 23:30N 30°05' W 093°17'0 0.0
2018-Jun-14 23:01N 30°05' W 093°17'0 0.0
2018-Jun-14 22:30N 30°05' W 093°17'0 0.0
2018-Jun-14 22:00N 30°05' W 093°17'0 0.0
2018-Jun-14 21:31N 30°05' W 093°17'0 0.0
2018-Jun-14 21:01N 30°05' W 093°17'0 0.0
2018-Jun-14 20:30N 30°05' W 093°17'0 0.0
2018-Jun-14 20:01N 30°05' W 093°17'0 0.0
2018-Jun-14 19:31N 30°05' W 093°17'0 0.0
2018-Jun-14 19:01N 30°05' W 093°17'0 0.0
2018-Jun-14 18:31N 30°05' W 093°17'0 0.0
2018-Jun-14 18:00N 30°05' W 093°17'0 0.0
2018-Jun-14 17:31N 30°05' W 093°17'0 0.0
2018-Jun-14 17:01N 30°05' W 093°17'0 0.0
2018-Jun-14 16:31N 30°05' W 093°17'0 0.0
2018-Jun-14 16:01N 30°05' W 093°17'0 0.0
2018-Jun-14 15:31N 30°05' W 093°17'0 0.0
2018-Jun-14 15:01N 30°05' W 093°17'0 0.0
2018-Jun-14 14:31N 30°05' W 093°17'0 0.0
2018-Jun-14 14:00N 30°05' W 093°17'0 0.0
2018-Jun-14 13:31N 30°05' W 093°17'0 0.0
2018-Jun-14 13:01N 30°05' W 093°17'0 0.0
2018-Jun-14 12:31N 30°05' W 093°17'0 0.0
2018-Jun-14 12:01N 30°05' W 093°17'0 0.0
2018-Jun-14 11:29N 30°05' W 093°17'0 0.0
2018-Jun-14 11:00N 30°05' W 093°17'0 0.0
2018-Jun-14 10:31N 30°05' W 093°17'0 0.0
2018-Jun-14 10:01N 30°05' W 093°17'0 0.0
2018-Jun-14 09:30N 30°05' W 093°17'0 0.0
2018-Jun-14 09:01N 30°05' W 093°17'0 0.0
2018-Jun-14 08:31N 30°05' W 093°17'0 0.0
2018-Jun-14 08:01N 30°05' W 093°17'1 1.5
2018-Jun-14 07:31N 30°04' W 093°16'1 2.7
2018-Jun-14 07:01N 30°03' W 093°16'0 0.5
2018-Jun-14 06:31N 30°03' W 093°16'0 0.0
2018-Jun-14 06:01N 30°03' W 093°16'0 0.1
2018-Jun-14 05:31N 30°03' W 093°16'0 0.0
2018-Jun-14 05:01N 30°03' W 093°16'0 0.0
2018-Jun-14 04:31N 30°03' W 093°16'0 0.0
2018-Jun-14 04:01N 30°03' W 093°16'0 0.0
2018-Jun-14 03:31N 30°03' W 093°16'0 0.0
2018-Jun-14 03:01N 30°03' W 093°16'0 0.0
2018-Jun-14 02:30N 30°03' W 093°16'0 0.0
2018-Jun-14 02:01N 30°03' W 093°16'0 0.0
2018-Jun-14 01:30N 30°03' W 093°16'0 0.0
2018-Jun-14 01:00N 30°03' W 093°16'0 0.0
2018-Jun-14 00:31N 30°03' W 093°16'0 0.8
2018-Jun-14 00:01N 30°02' W 093°15'2 4.1
2018-Jun-13 23:30N 30°01' W 093°14'2 4.3
2018-Jun-13 23:00N 29°59' W 093°12'0 0.9
2018-Jun-13 22:31N 29°59' W 093°12'0 0.0
2018-Jun-13 22:00N 29°59' W 093°12'0 0.1
2018-Jun-13 21:30N 29°59' W 093°12'0 0.0
2018-Jun-13 21:01N 29°59' W 093°12'0 0.0
2018-Jun-13 20:30N 29°59' W 093°12'0 0.0
2018-Jun-13 20:01N 29°59' W 093°12'0 0.0
2018-Jun-13 19:30N 29°59' W 093°12'0 0.0
2018-Jun-13 19:01N 29°59' W 093°12'0 0.0
2018-Jun-13 18:31N 29°59' W 093°12'0 0.0
2018-Jun-13 18:01N 29°59' W 093°12'0 0.1
2018-Jun-13 17:30N 29°59' W 093°12'0 0.0
2018-Jun-13 17:00N 29°59' W 093°12'0 0.0
2018-Jun-13 16:31N 29°59' W 093°12'0 0.0
2018-Jun-13 16:01N 29°59' W 093°12'0 0.0
2018-Jun-13 15:31N 29°59' W 093°12'0 0.0
2018-Jun-13 15:00N 29°59' W 093°12'0 0.0
2018-Jun-13 14:30N 29°59' W 093°12'0 0.7
2018-Jun-13 14:01N 29°58' W 093°12'0 0.6
2018-Jun-13 13:30N 29°58' W 093°12'1 2.8
2018-Jun-13 13:01N 29°57' W 093°10'0 0.7
2018-Jun-13 12:31N 29°57' W 093°10'0 0.4
2018-Jun-13 11:59N 29°57' W 093°10'40 2.6
2018-Jun-12 20:14N 29°53' W 092°24'2 4.8
2018-Jun-12 19:53N 29°52' W 092°22'1 2.5
2018-Jun-12 19:26N 29°51' W 092°22'2 4.4
2018-Jun-12 19:01N 29°50' W 092°20'1 1.5
2018-Jun-12 18:31N 29°50' W 092°19'2 3.6
2018-Jun-12 18:01N 29°49' W 092°17'0 0.0
2018-Jun-12 17:31N 29°49' W 092°17'0 0.9
2018-Jun-12 17:00N 29°49' W 092°17'3 5.2
2018-Jun-12 16:31N 29°48' W 092°14'2 3.6
2018-Jun-12 16:00N 29°47' W 092°12'1 1.7
2018-Jun-12 15:30N 29°47' W 092°11'2 4.3
2018-Jun-12 15:01N 29°47' W 092°09'3 5.4
2018-Jun-12 14:30N 29°48' W 092°06'3 5.4
2018-Jun-12 14:01N 29°49' W 092°03'3 5.9
2018-Jun-12 13:31N 29°50' W 091°60'3 5.7
2018-Jun-12 13:00N 29°51' W 091°57'  

Dump ship's entire track history